createdAt,value
2022-08-17T00:05:49.062Z,17.00
2022-08-17T00:08:20.781Z,16.50
2022-08-17T00:10:49.658Z,16.50
2022-08-17T00:15:49.450Z,16.40
2022-08-17T00:18:53.778Z,16.40
2022-08-17T00:21:10.396Z,16.30
2022-08-17T00:23:44.375Z,16.30
2022-08-17T00:26:44.363Z,16.30
2022-08-17T00:29:07.729Z,16.40
2022-08-17T00:31:38.021Z,16.40
2022-08-17T00:34:10.090Z,16.30
2022-08-17T00:36:39.358Z,16.30
2022-08-17T00:39:07.571Z,16.20
2022-08-17T00:41:36.876Z,16.20
2022-08-17T00:44:12.286Z,16.30
2022-08-17T00:46:43.011Z,16.30
2022-08-17T00:49:14.056Z,16.30
2022-08-17T00:51:47.476Z,16.40
2022-08-17T00:54:23.811Z,16.50
2022-08-17T00:56:58.040Z,16.50
2022-08-17T00:59:30.918Z,16.50
2022-08-17T01:01:59.947Z,16.40
2022-08-17T01:04:31.466Z,16.40
2022-08-17T01:07:05.403Z,16.40
2022-08-17T01:09:34.085Z,16.40
2022-08-17T01:12:02.230Z,16.40
2022-08-17T01:14:31.573Z,16.50
2022-08-17T01:17:00.730Z,16.60
2022-08-17T01:19:34.264Z,16.60
2022-08-17T01:22:07.821Z,16.50
2022-08-17T01:24:39.490Z,16.50
2022-08-17T01:27:10.432Z,16.50
2022-08-17T01:29:44.333Z,16.50
2022-08-17T01:32:12.990Z,16.30
2022-08-17T01:34:43.562Z,16.30
2022-08-17T01:37:20.614Z,16.30
2022-08-17T01:39:53.712Z,16.30
2022-08-17T01:42:25.629Z,16.30
2022-08-17T01:44:58.981Z,16.40
2022-08-17T01:47:27.443Z,16.30
2022-08-17T01:49:58.160Z,16.30
2022-08-17T01:52:27.392Z,16.30
2022-08-17T01:54:57.471Z,16.30
2022-08-17T01:57:25.990Z,16.30
2022-08-17T01:59:54.438Z,16.30
2022-08-17T02:02:30.945Z,16.30
2022-08-17T02:05:01.727Z,16.40
2022-08-17T02:07:30.318Z,16.40
2022-08-17T02:10:00.376Z,16.30
2022-08-17T02:12:39.535Z,16.30
2022-08-17T02:15:17.162Z,16.10
2022-08-17T02:17:45.815Z,16.00
2022-08-17T02:20:14.439Z,16.00
2022-08-17T02:22:46.118Z,16.00
2022-08-17T02:25:19.283Z,16.00
2022-08-17T02:27:48.789Z,16.10
2022-08-17T02:31:00.912Z,16.00
2022-08-17T02:33:09.406Z,16.00
2022-08-17T02:35:39.919Z,16.00
2022-08-17T02:38:08.809Z,16.10
2022-08-17T02:40:40.570Z,16.20
2022-08-17T02:43:10.877Z,16.30
2022-08-17T02:45:39.669Z,16.60
2022-08-17T02:48:07.907Z,16.90
2022-08-17T02:50:36.279Z,17.00
2022-08-17T02:53:05.478Z,17.10
2022-08-17T02:55:36.626Z,17.10
2022-08-17T02:58:06.474Z,17.20
2022-08-17T03:00:38.174Z,17.20
2022-08-17T03:03:07.582Z,17.10
2022-08-17T03:05:38.424Z,17.20
2022-08-17T03:08:11.726Z,17.30
2022-08-17T03:10:42.243Z,17.50
2022-08-17T03:13:12.756Z,17.80
2022-08-17T03:15:41.550Z,17.90
2022-08-17T03:18:24.158Z,18.10
2022-08-17T03:20:53.937Z,18.30
2022-08-17T03:23:24.156Z,18.30
2022-08-17T03:25:54.071Z,18.30
2022-08-17T03:28:24.582Z,18.30
2022-08-17T03:30:53.247Z,18.40
2022-08-17T03:33:22.010Z,18.30
2022-08-17T03:35:50.254Z,18.30
2022-08-17T03:38:19.006Z,18.30
2022-08-17T03:40:57.381Z,18.20
2022-08-17T03:43:31.683Z,18.10
2022-08-17T03:46:28.144Z,17.90
2022-08-17T03:49:24.518Z,17.80
2022-08-17T03:52:10.214Z,17.50
2022-08-17T03:54:56.293Z,17.40
2022-08-17T03:57:25.852Z,17.30
2022-08-17T03:59:55.847Z,17.20
2022-08-17T04:02:26.830Z,17.10
2022-08-17T04:04:55.055Z,17.00
2022-08-17T04:07:25.853Z,17.00
2022-08-17T04:09:54.860Z,16.90
2022-08-17T04:12:25.581Z,16.90
2022-08-17T04:14:55.490Z,16.80
2022-08-17T04:17:25.662Z,16.80
2022-08-17T04:19:54.803Z,16.70
2022-08-17T04:22:32.537Z,16.70
2022-08-17T04:25:04.611Z,16.60
2022-08-17T04:27:35.053Z,16.50
2022-08-17T04:30:08.047Z,16.40
2022-08-17T04:33:04.430Z,16.30
2022-08-17T04:35:37.899Z,16.30
2022-08-17T04:38:06.254Z,16.20
2022-08-17T04:40:52.731Z,16.30
2022-08-17T04:43:25.921Z,16.30
2022-08-17T04:45:57.931Z,16.30
2022-08-17T04:48:35.557Z,16.30
2022-08-17T04:51:09.791Z,16.30
2022-08-17T04:53:39.093Z,16.40
2022-08-17T04:56:07.965Z,16.40
2022-08-17T04:58:44.402Z,16.30
2022-08-17T05:01:19.052Z,16.30
2022-08-17T05:03:54.258Z,16.40
2022-08-17T05:06:23.203Z,16.50
2022-08-17T05:08:51.459Z,16.70
2022-08-17T05:11:19.784Z,17.00
2022-08-17T05:13:50.122Z,17.20
2022-08-17T05:16:21.394Z,17.50
2022-08-17T05:18:52.384Z,17.80
2022-08-17T05:21:22.261Z,18.20
2022-08-17T05:23:54.983Z,18.50
2022-08-17T05:26:26.079Z,18.70
2022-08-17T05:28:57.163Z,19.00
2022-08-17T05:31:30.246Z,19.10
2022-08-17T05:33:58.805Z,19.30
2022-08-17T05:36:37.870Z,19.40
2022-08-17T05:39:17.041Z,19.60
2022-08-17T05:41:48.197Z,20.00
2022-08-17T05:44:17.113Z,20.20
2022-08-17T05:46:51.441Z,20.60
2022-08-17T05:49:25.413Z,20.80
2022-08-17T05:52:27.535Z,20.90
2022-08-17T05:55:11.330Z,21.10
2022-08-17T05:57:53.375Z,21.10
2022-08-17T06:00:30.883Z,20.90
2022-08-17T06:03:25.756Z,20.90
2022-08-17T06:06:07.183Z,21.10
2022-08-17T06:08:45.758Z,21.20
2022-08-17T06:11:23.645Z,21.30
2022-08-17T06:14:11.792Z,21.20
2022-08-17T06:16:44.353Z,21.20
2022-08-17T06:19:19.061Z,21.20
2022-08-17T06:21:52.387Z,21.20
2022-08-17T06:24:40.507Z,21.30
2022-08-17T06:27:14.713Z,21.50
2022-08-17T06:29:51.286Z,21.60
2022-08-17T06:32:19.581Z,21.70
2022-08-17T06:34:49.507Z,21.70
2022-08-17T06:37:31.981Z,21.90
2022-08-17T06:40:15.703Z,22.30
2022-08-17T06:43:05.860Z,22.80
2022-08-17T06:45:38.157Z,23.10
2022-08-17T06:48:14.130Z,23.00
2022-08-17T06:50:50.302Z,23.00
2022-08-17T06:53:24.549Z,22.60
2022-08-17T06:56:06.089Z,22.50
2022-08-17T06:58:35.845Z,22.50
2022-08-17T07:01:16.638Z,23.00
2022-08-17T07:03:54.609Z,24.00
2022-08-17T07:06:27.728Z,24.50
2022-08-17T07:09:02.411Z,24.60
2022-08-17T07:11:35.350Z,24.70
2022-08-17T07:14:19.483Z,24.30
2022-08-17T07:16:50.422Z,24.00
2022-08-17T07:19:23.317Z,23.60
2022-08-17T07:21:58.473Z,23.70
2022-08-17T07:24:37.341Z,23.70
2022-08-17T07:27:13.741Z,24.10
2022-08-17T07:29:46.410Z,25.10
2022-08-17T07:32:19.303Z,25.30
2022-08-17T07:35:22.210Z,24.50
2022-08-17T07:37:54.451Z,25.30
2022-08-17T07:40:27.686Z,26.20
2022-08-17T07:43:04.925Z,27.10
2022-08-17T07:45:52.432Z,26.50
2022-08-17T07:48:24.344Z,27.10
2022-08-17T07:50:53.238Z,26.40
2022-08-17T07:53:27.405Z,26.70
2022-08-17T07:55:56.039Z,27.30
2022-08-17T07:58:26.525Z,26.70
2022-08-17T08:01:09.816Z,27.20
2022-08-17T08:03:43.430Z,27.80
2022-08-17T08:06:22.417Z,28.10
2022-08-17T08:08:55.892Z,27.50
2022-08-17T08:11:33.830Z,27.40
2022-08-17T08:14:28.539Z,27.50
2022-08-17T08:17:00.215Z,27.60
2022-08-17T08:19:29.592Z,27.10
2022-08-17T08:22:05.573Z,27.50
2022-08-17T08:25:00.333Z,27.50
2022-08-17T08:27:38.623Z,27.30
2022-08-17T08:30:10.646Z,27.60
2022-08-17T08:32:57.534Z,27.50
2022-08-17T08:35:33.041Z,27.50
2022-08-17T08:38:09.937Z,27.00
2022-08-17T08:40:50.692Z,26.80
2022-08-17T08:43:28.165Z,27.10
2022-08-17T08:46:05.872Z,27.30
2022-08-17T08:49:12.653Z,27.30
2022-08-17T08:51:53.179Z,28.20
2022-08-17T08:54:34.402Z,28.70
2022-08-17T08:57:26.910Z,29.30
2022-08-17T09:00:12.581Z,29.10
2022-08-17T09:03:07.345Z,28.90
2022-08-17T09:05:52.803Z,28.50
2022-08-17T09:08:31.791Z,28.70
2022-08-17T09:11:06.228Z,29.00
2022-08-17T09:13:45.120Z,28.40
2022-08-17T09:16:17.211Z,29.20
2022-08-17T09:19:03.327Z,28.40
2022-08-17T09:21:47.930Z,27.60
2022-08-17T09:24:25.099Z,27.60
2022-08-17T09:26:58.928Z,27.60
2022-08-17T09:29:35.138Z,27.60
2022-08-17T09:32:06.401Z,27.70
2022-08-17T09:34:39.644Z,27.90
2022-08-17T09:37:21.755Z,28.30
2022-08-17T09:40:00.313Z,28.70
2022-08-17T09:42:33.240Z,28.80
2022-08-17T09:45:17.223Z,28.20
2022-08-17T09:47:51.298Z,28.90
2022-08-17T09:51:03.462Z,29.40
2022-08-17T09:53:16.600Z,29.10
2022-08-17T09:56:01.084Z,28.70
2022-08-17T09:58:40.646Z,29.00
2022-08-17T10:01:22.721Z,29.10
2022-08-17T10:04:11.710Z,29.30
2022-08-17T10:06:51.776Z,29.50
2022-08-17T10:09:30.027Z,29.70
2022-08-17T10:12:20.344Z,29.30
2022-08-17T10:15:22.952Z,29.30
2022-08-17T10:18:08.496Z,30.40
2022-08-17T10:20:44.917Z,30.60
2022-08-17T10:23:34.414Z,30.90
2022-08-17T10:26:16.538Z,30.90
2022-08-17T10:28:58.674Z,31.30
2022-08-17T10:31:35.671Z,31.80
2022-08-17T10:34:38.866Z,31.40
2022-08-17T10:37:28.297Z,30.60
2022-08-17T10:40:19.475Z,29.70
2022-08-17T10:42:52.038Z,29.70
2022-08-17T10:45:26.206Z,29.80
2022-08-17T10:48:04.659Z,29.50
2022-08-17T10:50:58.667Z,29.30
2022-08-17T10:53:55.477Z,29.00
2022-08-17T10:56:42.477Z,29.20
2022-08-17T10:59:10.751Z,29.70
2022-08-17T11:02:12.217Z,29.30
2022-08-17T11:05:13.225Z,29.40
2022-08-17T11:07:58.908Z,29.90
2022-08-17T11:10:55.666Z,29.80
2022-08-17T11:13:37.725Z,30.10
2022-08-17T11:16:25.055Z,30.60
2022-08-17T11:19:23.208Z,30.60
2022-08-17T11:22:31.327Z,30.00
2022-08-17T11:25:16.106Z,30.00
2022-08-17T11:27:48.623Z,30.10
2022-08-17T11:30:48.650Z,30.10
2022-08-17T11:33:54.218Z,30.20
2022-08-17T11:36:49.901Z,30.90
2022-08-17T11:39:35.530Z,31.00
2022-08-17T11:42:11.809Z,31.00
2022-08-17T11:44:53.597Z,31.00
2022-08-17T11:48:08.966Z,31.10
2022-08-17T11:51:03.906Z,31.40
2022-08-17T11:54:31.690Z,31.20
2022-08-17T11:57:00.083Z,31.10
2022-08-17T12:00:08.549Z,31.00
2022-08-17T12:02:49.029Z,30.60
2022-08-17T12:05:38.633Z,30.80
2022-08-17T12:08:17.775Z,30.40
2022-08-17T12:10:59.749Z,29.90
2022-08-17T12:13:38.628Z,29.50
2022-08-17T12:16:09.342Z,29.90
2022-08-17T12:18:42.026Z,30.10
2022-08-17T12:21:28.916Z,30.00
2022-08-17T12:24:02.054Z,29.40
2022-08-17T12:26:33.716Z,29.30
2022-08-17T12:29:03.936Z,29.10
2022-08-17T12:31:37.048Z,29.40
2022-08-17T12:34:06.939Z,29.90
2022-08-17T12:36:36.383Z,30.20
2022-08-17T12:39:12.926Z,30.80
2022-08-17T12:41:45.266Z,31.20
2022-08-17T12:44:16.511Z,31.40
2022-08-17T12:46:55.408Z,31.20
2022-08-17T12:49:31.081Z,31.90
2022-08-17T12:52:09.587Z,31.50
2022-08-17T12:54:50.392Z,31.70
2022-08-17T12:57:21.727Z,32.20
2022-08-17T12:59:53.462Z,32.60
2022-08-17T13:02:31.611Z,32.40
2022-08-17T13:05:02.650Z,32.70
2022-08-17T13:07:35.136Z,32.00
2022-08-17T13:10:04.650Z,31.60
2022-08-17T13:12:36.658Z,31.20
2022-08-17T13:15:05.877Z,31.00
2022-08-17T13:17:37.479Z,30.30
2022-08-17T13:20:16.160Z,30.20
2022-08-17T13:22:45.108Z,30.30
2022-08-17T13:25:18.216Z,30.50
2022-08-17T13:27:48.942Z,30.50
2022-08-17T13:30:23.866Z,30.80
2022-08-17T13:32:53.826Z,30.70
2022-08-17T13:35:39.972Z,30.50
2022-08-17T13:38:11.210Z,30.50
2022-08-17T13:40:48.400Z,30.20
2022-08-17T13:43:44.774Z,30.60
2022-08-17T13:46:20.401Z,30.50
2022-08-17T13:48:59.753Z,31.20
2022-08-17T13:51:45.970Z,30.90
2022-08-17T13:54:27.941Z,30.80
2022-08-17T13:57:04.569Z,30.40
2022-08-17T13:59:53.643Z,30.40
2022-08-17T14:02:27.703Z,30.70
2022-08-17T14:04:58.516Z,30.80
2022-08-17T14:07:35.127Z,30.80
2022-08-17T14:10:08.181Z,30.60
2022-08-17T14:12:38.765Z,30.50
2022-08-17T14:15:07.756Z,30.60
2022-08-17T14:17:38.837Z,30.70
2022-08-17T14:20:11.789Z,30.60
2022-08-17T14:22:44.945Z,30.60
2022-08-17T14:25:18.725Z,30.60
2022-08-17T14:27:52.893Z,30.20
2022-08-17T14:30:23.982Z,29.90
2022-08-17T14:32:52.814Z,29.50
2022-08-17T14:35:23.865Z,29.50
2022-08-17T14:37:53.894Z,29.60
2022-08-17T14:40:24.674Z,29.50
2022-08-17T14:42:55.470Z,29.20
2022-08-17T14:45:29.707Z,29.30
2022-08-17T14:48:02.714Z,29.40
2022-08-17T14:50:31.737Z,29.30
2022-08-17T14:53:04.121Z,29.20
2022-08-17T14:55:32.654Z,28.90
2022-08-17T14:58:01.227Z,29.00
2022-08-17T15:00:29.573Z,29.00
2022-08-17T15:02:59.406Z,28.80
2022-08-17T15:05:31.759Z,28.90
2022-08-17T15:08:02.454Z,29.00
2022-08-17T15:10:31.638Z,28.70
2022-08-17T15:13:00.563Z,28.60
2022-08-17T15:15:29.674Z,28.50
2022-08-17T15:17:59.154Z,28.50
2022-08-17T15:20:29.822Z,28.50
2022-08-17T15:22:59.208Z,28.60
2022-08-17T15:25:32.846Z,28.40
2022-08-17T15:28:02.030Z,28.50
2022-08-17T15:30:31.187Z,28.60
2022-08-17T15:33:00.656Z,28.50
2022-08-17T15:35:31.111Z,28.50
2022-08-17T15:38:06.491Z,28.60
2022-08-17T15:40:42.940Z,28.50
2022-08-17T15:43:14.219Z,28.40
2022-08-17T15:45:42.495Z,28.40
2022-08-17T15:48:18.494Z,28.40
2022-08-17T15:50:49.436Z,28.30
2022-08-17T15:53:17.633Z,28.30
2022-08-17T15:55:47.206Z,28.40
2022-08-17T15:58:15.364Z,28.10
2022-08-17T16:00:53.424Z,27.90
2022-08-17T16:04:01.553Z,27.90
2022-08-17T16:06:30.153Z,27.80
2022-08-17T16:08:59.717Z,27.70
2022-08-17T16:11:29.242Z,27.70
2022-08-17T16:13:57.515Z,27.60
2022-08-17T16:16:26.103Z,27.50
2022-08-17T16:18:58.656Z,27.40
2022-08-17T16:21:29.577Z,27.40
2022-08-17T16:24:01.504Z,27.30
2022-08-17T16:26:33.283Z,27.20
2022-08-17T16:29:03.618Z,27.20
2022-08-17T16:31:32.318Z,27.10
2022-08-17T16:34:17.644Z,27.10
2022-08-17T16:36:55.433Z,27.00
2022-08-17T16:39:26.464Z,27.00
2022-08-17T16:41:56.582Z,27.00
2022-08-17T16:44:26.156Z,27.00
2022-08-17T16:46:54.566Z,26.90
2022-08-17T16:49:36.260Z,26.90
2022-08-17T16:52:11.061Z,26.80
2022-08-17T16:54:41.381Z,26.70
2022-08-17T16:57:12.010Z,26.70
2022-08-17T16:59:42.748Z,26.70
2022-08-17T17:02:15.626Z,26.70
2022-08-17T17:04:51.217Z,26.60
2022-08-17T17:07:45.562Z,26.50
2022-08-17T17:10:19.948Z,26.50
2022-08-17T17:13:02.556Z,26.50
2022-08-17T17:15:44.346Z,26.40
2022-08-17T17:18:15.565Z,26.40
2022-08-17T17:20:51.790Z,26.40
2022-08-17T17:23:42.670Z,26.30
2022-08-17T17:26:23.703Z,26.30
2022-08-17T17:29:04.994Z,26.20
2022-08-17T17:31:39.769Z,26.20
2022-08-17T17:34:11.755Z,26.10
2022-08-17T17:36:45.339Z,26.10
2022-08-17T17:39:16.697Z,26.00
2022-08-17T17:41:48.981Z,26.10
2022-08-17T17:44:25.118Z,26.10
2022-08-17T17:46:58.054Z,26.00
2022-08-17T17:49:32.266Z,26.10
2022-08-17T17:52:13.391Z,26.10
2022-08-17T17:54:59.061Z,26.10
2022-08-17T17:57:39.825Z,26.20
2022-08-17T18:00:14.065Z,26.10
2022-08-17T18:03:02.466Z,26.00
2022-08-17T18:06:08.175Z,25.80
2022-08-17T18:08:52.887Z,25.80
2022-08-17T18:11:50.757Z,25.60
2022-08-17T18:14:34.799Z,25.50
2022-08-17T18:17:07.108Z,25.50
2022-08-17T18:19:38.840Z,25.40
2022-08-17T18:22:14.583Z,25.30
2022-08-17T18:24:45.741Z,25.10
2022-08-17T18:27:28.967Z,24.90
2022-08-17T18:29:59.067Z,24.80
2022-08-17T18:32:32.511Z,24.60
2022-08-17T18:35:27.730Z,24.80
2022-08-17T18:37:58.027Z,24.70
2022-08-17T18:40:30.903Z,24.60
2022-08-17T18:43:06.577Z,24.50
2022-08-17T18:45:42.279Z,24.50
2022-08-17T18:48:32.875Z,24.50
2022-08-17T18:51:06.228Z,24.50
2022-08-17T18:53:40.876Z,24.40
2022-08-17T18:56:26.282Z,24.30
2022-08-17T18:59:14.246Z,24.20
2022-08-17T19:01:53.327Z,24.10
2022-08-17T19:04:37.279Z,24.00
2022-08-17T19:07:28.542Z,23.90
2022-08-17T19:10:03.832Z,24.00
2022-08-17T19:12:39.012Z,24.00
2022-08-17T19:15:11.101Z,24.00
2022-08-17T19:17:49.564Z,24.00
2022-08-17T19:20:23.902Z,24.10
2022-08-17T19:23:01.662Z,24.00
2022-08-17T19:25:33.146Z,23.90
2022-08-17T19:28:15.385Z,23.90
2022-08-17T19:30:55.747Z,23.90
2022-08-17T19:33:24.232Z,23.90
2022-08-17T19:36:02.025Z,23.90
2022-08-17T19:38:41.289Z,23.80
2022-08-17T19:41:17.977Z,23.80
2022-08-17T19:44:11.648Z,23.90
2022-08-17T19:46:50.080Z,23.90
2022-08-17T19:49:41.251Z,23.80
2022-08-17T19:52:37.444Z,23.70
2022-08-17T19:55:10.526Z,23.60
2022-08-17T19:57:47.476Z,23.50
2022-08-17T20:00:19.285Z,23.40
2022-08-17T20:02:58.920Z,23.20
2022-08-17T20:05:30.226Z,23.00
2022-08-17T20:08:05.760Z,23.00
2022-08-17T20:10:45.206Z,22.90
2022-08-17T20:13:32.833Z,22.80
2022-08-17T20:16:03.892Z,22.70
2022-08-17T20:18:38.066Z,22.70
2022-08-17T20:21:19.810Z,22.70
2022-08-17T20:23:54.780Z,22.80
2022-08-17T20:26:27.536Z,22.80
2022-08-17T20:29:41.680Z,22.80
2022-08-17T20:32:25.153Z,22.70
2022-08-17T20:35:06.547Z,22.70
2022-08-17T20:37:44.780Z,22.70
2022-08-17T20:40:28.332Z,22.60
2022-08-17T20:42:59.822Z,22.60
2022-08-17T20:46:05.545Z,22.70
2022-08-17T20:48:39.663Z,22.70
2022-08-17T20:51:32.877Z,22.90
2022-08-17T20:54:23.244Z,22.80
2022-08-17T20:57:01.357Z,22.70
2022-08-17T21:00:13.799Z,22.50
2022-08-17T21:02:45.968Z,21.90
2022-08-17T21:05:39.019Z,21.30
2022-08-17T21:08:16.022Z,20.90
2022-08-17T21:10:46.851Z,20.20
2022-08-17T21:13:42.444Z,19.60
2022-08-17T21:16:29.500Z,19.30
2022-08-17T21:19:11.058Z,19.10
2022-08-17T21:21:47.951Z,18.90
2022-08-17T21:24:27.446Z,19.00
2022-08-17T21:27:05.616Z,19.00
2022-08-17T21:29:40.365Z,18.90
2022-08-17T21:32:24.214Z,18.80
2022-08-17T21:35:28.315Z,18.80
2022-08-17T21:43:01.670Z,18.80
2022-08-17T21:45:41.800Z,18.50
2022-08-17T21:48:19.553Z,18.40
2022-08-17T21:50:59.171Z,18.30
2022-08-17T21:53:35.377Z,18.20
2022-08-17T21:56:04.681Z,18.20
2022-08-17T21:58:39.448Z,18.20
2022-08-17T22:01:22.662Z,18.10
2022-08-17T22:04:01.805Z,18.10
2022-08-17T22:06:35.149Z,18.10
2022-08-17T22:09:12.337Z,18.10
2022-08-17T22:11:55.470Z,18.10
2022-08-17T22:14:27.202Z,18.10
2022-08-17T22:17:24.894Z,18.10
2022-08-17T22:19:56.891Z,18.00
2022-08-17T22:22:30.494Z,18.00
2022-08-17T22:25:03.387Z,18.00
2022-08-17T22:27:55.488Z,18.00
2022-08-17T22:30:33.620Z,18.10
2022-08-17T22:33:31.313Z,18.00
2022-08-17T22:36:29.014Z,18.00
2022-08-17T22:38:58.815Z,18.00
2022-08-17T22:41:44.526Z,18.00
2022-08-17T22:44:21.082Z,18.00
2022-08-17T22:46:57.503Z,18.00
2022-08-17T22:49:36.579Z,18.00
2022-08-17T22:52:09.797Z,18.00
2022-08-17T22:54:55.963Z,18.00
2022-08-17T22:57:48.561Z,18.00
2022-08-17T23:00:32.061Z,18.00
2022-08-17T23:03:13.936Z,18.00
2022-08-17T23:05:46.170Z,18.00
2022-08-17T23:08:22.166Z,17.90
2022-08-17T23:10:50.864Z,17.80
2022-08-17T23:13:21.305Z,17.80
2022-08-17T23:15:51.070Z,17.80
2022-08-17T23:18:19.695Z,17.80
2022-08-17T23:20:49.410Z,17.70
2022-08-17T23:23:23.602Z,17.70
2022-08-17T23:25:52.225Z,17.70
2022-08-17T23:28:21.599Z,17.70
2022-08-17T23:30:50.394Z,17.70
2022-08-17T23:33:21.620Z,17.70
2022-08-17T23:35:51.251Z,17.70
2022-08-17T23:38:19.394Z,17.70
2022-08-17T23:40:47.661Z,17.70
2022-08-17T23:43:25.284Z,17.70
2022-08-17T23:45:57.620Z,17.60
2022-08-17T23:48:27.812Z,17.60
2022-08-17T23:51:09.179Z,17.50
2022-08-17T23:53:38.379Z,17.50
2022-08-17T23:56:10.493Z,17.50
2022-08-17T23:58:39.739Z,17.50
